Time;durP1;ratioP1;P1;durP2;ratioP2;P2;SDS_P1;SDS_P2;PMS_P1;PMS_P2;Temp;Humidity;BMP_temperature;BMP_pressure;BME280_temperature;BME280_humidity;BME280_pressure;Samples;Min_cycle;Max_cycle;Signal;HPM_P1;HPM_P2
2023/03/03 00:00:13;;;;;;;14.30;6.22;;;;;;;2.78;58.29;100095.84;12164199;19;20017;-81
2023/03/03 00:04:15;;;;;;;11.73;5.78;;;;;;;2.67;58.45;100097.16;12141773;19;21192;-81
2023/03/03 00:08:18;;;;;;;10.10;5.28;;;;;;;2.56;59.60;100101.25;12160428;19;20002;-80
2023/03/03 00:12:24;;;;;;;13.02;5.80;;;;;;;2.43;59.89;100096.47;12164068;19;20345;-79
2023/03/03 00:16:37;;;;;;;14.23;6.05;;;;;;;2.30;60.94;100096.31;12142177;19;20626;-81
2023/03/03 00:20:39;;;;;;;;;;;;;;;2.22;60.96;100099.13;12162394;19;20542;-80
2023/03/03 00:24:40;;;;;;;12.45;5.55;;;;;;;2.17;61.35;100105.13;12139417;19;19907;-81
2023/03/03 00:28:47;;;;;;;13.57;5.97;;;;;;;2.14;61.79;100110.97;12158427;19;20045;-81
2023/03/03 00:32:49;;;;;;;12.95;5.93;;;;;;;2.06;61.92;100108.31;12161515;19;20046;-81
2023/03/03 00:36:54;;;;;;;13.60;6.30;;;;;;;1.99;62.44;100110.09;12145753;19;20044;-79
2023/03/03 00:40:56;;;;;;;12.82;6.38;;;;;;;1.97;62.45;100123.03;12165879;19;20021;-80
2023/03/03 00:44:59;;;;;;;13.15;6.15;;;;;;;1.96;62.46;100126.75;12160540;19;20018;-80
2023/03/03 00:49:04;;;;;;;14.98;6.68;;;;;;;1.96;63.36;100132.19;12143674;19;20864;-81
2023/03/03 00:53:12;;;;;;;15.32;7.00;;;;;;;1.95;63.91;100144.09;12161623;19;20063;-81
2023/03/03 00:57:14;;;;;;;17.27;7.18;;;;;;;1.93;63.99;100140.72;12164558;19;20019;-81
2023/03/03 01:01:18;;;;;;;14.50;7.38;;;;;;;1.90;64.82;100146.53;12138573;19;20523;-81
2023/03/03 01:05:24;;;;;;;17.08;7.47;;;;;;;1.86;65.64;100143.34;12160160;19;20042;-81
2023/03/03 01:09:25;;;;;;;14.57;6.82;;;;;;;1.77;65.70;100139.03;12166814;19;20013;-80
2023/03/03 01:13:31;;;;;;;16.63;7.38;;;;;;;1.70;66.18;100133.50;12143715;19;20003;-80
2023/03/03 01:17:33;;;;;;;14.13;7.32;;;;;;;1.65;66.28;100133.19;12167220;19;20027;-81
2023/03/03 01:21:35;;;;;;;15.10;7.03;;;;;;;1.62;67.27;100138.16;12168598;19;20046;-82
2023/03/03 01:25:37;;;;;;;17.50;8.20;;;;;;;1.57;67.19;100131.38;12194165;19;20017;-81
2023/03/03 01:29:39;;;;;;;14.83;7.67;;;;;;;1.51;67.90;100123.97;12226466;19;20003;-80
2023/03/03 01:33:40;;;;;;;14.23;7.15;;;;;;;1.46;68.24;100129.13;12214301;19;20011;-81
2023/03/03 01:37:42;;;;;;;20.15;8.98;;;;;;;1.41;68.55;100130.69;12185742;19;20015;-81
2023/03/03 01:41:43;;;;;;;15.38;8.02;;;;;;;1.35;68.99;100124.97;12172597;19;20014;-81
2023/03/03 01:45:48;;;;;;;20.27;8.52;;;;;;;1.30;69.96;100121.09;12148854;19;20014;-81
2023/03/03 01:49:58;;;;;;;18.85;7.78;;;;;;;1.25;70.98;100121.66;12168435;19;20035;-79
2023/03/03 01:54:04;;;;;;;18.50;8.65;;;;;;;1.20;71.71;100128.66;12172185;19;20009;-80
2023/03/03 01:58:26;;;;;;;20.80;8.68;;;;;;;1.19;72.97;100126.94;12159016;19;20003;-80
2023/03/03 02:02:31;;;;;;;18.75;9.43;;;;;;;1.14;72.87;100119.38;12177476;19;20050;-79
2023/03/03 02:06:37;;;;;;;21.92;9.30;;;;;;;1.10;73.38;100118.03;12189236;19;20020;-80
2023/03/03 02:10:39;;;;;;;17.48;9.55;;;;;;;1.06;74.37;100114.00;12156331;19;20007;-80
2023/03/03 02:14:40;;;;;;;15.97;9.50;;;;;;;1.05;74.34;100113.16;12170872;19;20002;-80
2023/03/03 02:18:42;;;;;;;22.00;8.95;;;;;;;1.03;74.64;100114.34;12151542;19;20094;-80
2023/03/03 02:22:55;;;;;;;21.00;9.37;;;;;;;0.99;75.71;100111.16;12170197;19;20804;-80
2023/03/03 02:26:57;;;;;;;14.03;6.83;;;;;;;0.98;76.33;100105.91;12169896;19;20264;-80
2023/03/03 02:31:00;;;;;;;21.52;9.95;;;;;;;0.97;76.00;100105.06;12152589;19;20874;-80
2023/03/03 02:35:22;;;;;;;19.70;10.30;;;;;;;0.97;76.81;100112.38;12174346;19;20397;-80
2023/03/03 02:39:26;;;;;;;19.65;9.32;;;;;;;0.96;78.01;100121.53;12170983;19;20015;-80
2023/03/03 02:43:35;;;;;;;20.10;10.05;;;;;;;0.97;77.81;100115.91;12151714;19;20456;-79
2023/03/03 02:47:37;;;;;;;22.08;11.38;;;;;;;0.98;78.54;100109.50;12192509;19;20010;-80
2023/03/03 02:51:39;;;;;;;22.35;11.15;;;;;;;1.06;78.99;100103.13;12173252;19;20626;-81
2023/03/03 02:55:41;;;;;;;23.05;11.15;;;;;;;1.07;79.60;100104.81;12195698;19;20011;-80
2023/03/03 02:59:43;;;;;;;24.98;11.77;;;;;;;1.06;79.20;100101.25;12195055;19;20362;-80
2023/03/03 03:03:47;;;;;;;29.33;11.65;;;;;;;1.03;80.34;100111.66;12171243;19;20025;-80
2023/03/03 03:07:53;;;;;;;22.88;11.25;;;;;;;0.99;82.01;100113.88;12197382;19;20018;-80
2023/03/03 03:11:54;;;;;;;25.23;12.13;;;;;;;1.00;81.21;100112.00;12196875;19;20013;-80
2023/03/03 03:15:59;;;;;;;23.63;11.82;;;;;;;0.96;82.87;100114.25;12174293;19;20060;-79
2023/03/03 03:20:03;;;;;;;23.73;12.30;;;;;;;0.98;83.32;100116.75;12194360;19;20021;-80
2023/03/03 03:24:06;;;;;;;24.42;13.43;;;;;;;1.00;84.07;100112.00;12192039;19;20096;-80
2023/03/03 03:28:15;;;;;;;30.15;13.15;;;;;;;1.05;84.33;100115.03;12171254;19;20010;-79
2023/03/03 03:32:17;;;;;;;26.20;13.75;;;;;;;1.09;85.53;100114.47;12189569;19;20035;-79
2023/03/03 03:36:19;;;;;;;34.60;14.35;;;;;;;1.09;85.51;100113.63;12193053;19;20039;-79
2023/03/03 03:40:20;;;;;;;34.33;14.27;;;;;;;1.10;85.13;100120.75;12169874;19;20010;-80
2023/03/03 03:44:24;;;;;;;31.38;14.80;;;;;;;1.13;85.03;100104.09;12191232;19;20026;-79
2023/03/03 03:48:26;;;;;;;28.17;14.50;;;;;;;1.16;85.35;100109.19;12189939;19;20010;-79
2023/03/03 03:52:28;;;;;;;33.70;14.65;;;;;;;1.17;86.10;100123.59;12167822;19;20031;-79
2023/03/03 03:56:30;;;;;;;27.85;10.82;;;;;;;1.13;86.92;100125.81;12220460;19;20010;-79
2023/03/03 04:00:34;;;;;;;31.63;14.88;;;;;;;1.10;86.77;100118.03;12219196;19;20007;-79
2023/03/03 04:04:36;;;;;;;35.08;15.50;;;;;;;1.03;87.61;100111.66;12169489;19;20030;-79
2023/03/03 04:08:38;;;;;;;31.20;14.63;;;;;;;1.00;88.08;100112.84;12192494;19;20026;-79
2023/03/03 04:12:42;;;;;;;32.35;15.57;;;;;;;1.04;89.88;100124.19;12180850;19;20009;-79
2023/03/03 04:16:46;;;;;;;29.95;15.25;;;;;;;1.04;88.92;100127.75;12235399;19;20014;-79
2023/03/03 04:20:49;;;;;;;30.08;14.38;;;;;;;1.02;90.47;100132.50;12234173;19;20010;-80
2023/03/03 04:24:51;;;;;;;;;;;;;;;1.02;91.91;100126.25;12214801;19;20007;-79
2023/03/03 04:28:53;;;;;;;32.10;14.30;;;;;;;1.00;91.05;100128.28;12235597;19;19920;-79
2023/03/03 04:32:56;;;;;;;35.38;15.63;;;;;;;0.98;91.30;100138.47;12233572;19;20364;-79
2023/03/03 04:37:00;;;;;;;35.22;15.93;;;;;;;0.96;92.09;100143.25;12212095;19;20006;-79
2023/03/03 04:41:03;;;;;;;34.70;17.40;;;;;;;0.91;95.34;100133.75;12238628;19;20046;-80
2023/03/03 04:45:09;;;;;;;41.80;17.00;;;;;;;0.95;94.68;100152.41;12211462;19;20026;-80
2023/03/03 04:49:11;;;;;;;;;;;;;;;0.95;97.32;100147.81;12173029;19;20007;-79
2023/03/03 04:53:16;;;;;;;35.15;15.07;;;;;;;0.95;97.75;100136.13;12195563;19;20244;-79
2023/03/03 04:57:18;;;;;;;41.15;17.38;;;;;;;0.94;98.47;100153.44;12197798;19;20026;-79
2023/03/03 05:01:21;;;;;;;29.88;11.88;;;;;;;0.91;97.83;100158.19;12170884;19;20027;-79
2023/03/03 05:05:23;;;;;;;;;;;;;;;0.84;100.00;100170.78;12192936;19;20118;-80
2023/03/03 05:09:27;;;;;;;36.83;15.35;;;;;;;0.82;100.00;100158.41;12194255;19;19914;-79
2023/03/03 05:13:28;;;;;;;37.88;16.70;;;;;;;0.78;100.00;100157.09;12170121;19;20014;-80
2023/03/03 05:17:30;;;;;;;40.40;18.60;;;;;;;0.74;100.00;100153.03;12193640;19;20006;-79
2023/03/03 05:21:32;;;;;;;40.92;18.35;;;;;;;0.71;100.00;100153.38;12191904;19;20477;-82
2023/03/03 05:25:34;;;;;;;48.53;19.93;;;;;;;0.67;100.00;100153.75;12170658;19;20026;-80
2023/03/03 05:29:35;;;;;;;42.03;17.38;;;;;;;0.65;100.00;100144.09;12204257;19;20014;-80
2023/03/03 05:33:37;;;;;;;45.50;20.33;;;;;;;0.63;100.00;100151.56;12183395;19;20003;-79
2023/03/03 05:37:41;;;;;;;40.85;18.23;;;;;;;0.60;100.00;100141.09;12206058;19;19999;-80
2023/03/03 05:41:43;;;;;;;43.00;19.70;;;;;;;0.58;100.00;100143.13;12234041;19;20014;-80
2023/03/03 05:45:44;;;;;;;43.58;19.20;;;;;;;0.58;100.00;100152.09;12213074;19;20007;-79
2023/03/03 05:49:46;;;;;;;45.72;19.38;;;;;;;0.55;99.99;100143.47;12230970;19;20010;-80
2023/03/03 05:53:48;;;;;;;40.08;17.65;;;;;;;0.51;100.00;100148.41;12224593;19;20010;-80
2023/03/03 05:57:49;;;;;;;39.47;18.48;;;;;;;0.50;100.00;100167.56;12177972;19;20607;-80
2023/03/03 06:01:51;;;;;;;45.90;18.90;;;;;;;0.43;100.00;100168.25;12180743;19;20015;-80
2023/03/03 06:05:53;;;;;;;43.75;19.58;;;;;;;0.41;100.00;100178.41;12185667;19;20010;-81
2023/03/03 06:09:54;;;;;;;48.05;20.70;;;;;;;0.41;100.00;100189.25;12167115;19;20155;-81
2023/03/03 06:13:58;;;;;;;37.65;18.30;;;;;;;0.39;100.00;100175.06;12186466;19;20007;-80
2023/03/03 06:18:00;;;;;;;45.58;20.30;;;;;;;0.36;100.00;100183.53;12196955;19;20022;-83
2023/03/03 06:22:02;;;;;;;48.10;20.38;;;;;;;0.33;100.00;100189.31;12166136;19;20006;-81
2023/03/03 06:26:04;;;;;;;48.40;19.70;;;;;;;0.32;100.00;100193.03;12207203;19;20006;-80
2023/03/03 06:30:07;;;;;;;45.42;18.83;;;;;;;0.35;100.00;100211.66;12209691;19;20046;-80
2023/03/03 06:34:11;;;;;;;48.80;20.70;;;;;;;0.32;100.00;100208.44;12187553;19;20014;-79
2023/03/03 06:38:15;;;;;;;45.47;18.95;;;;;;;0.35;100.00;100218.94;12208788;19;20025;-82
2023/03/03 06:42:18;;;;;;;;;;;;;;;0.37;100.00;100212.34;12190021;19;20044;-81
2023/03/03 06:46:21;;;;;;;42.63;19.67;;;;;;;0.40;100.00;100228.25;12142030;19;19941;-82
2023/03/03 06:50:24;;;;;;;46.70;19.65;;;;;;;0.40;100.00;100228.25;12184946;19;20002;-82
2023/03/03 06:54:31;;;;;;;46.63;18.88;;;;;;;0.41;100.00;100234.50;12187656;19;20047;-81
2023/03/03 06:58:34;;;;;;;49.67;21.33;;;;;;;0.44;100.00;100235.00;12157780;19;20003;-82
2023/03/03 07:02:37;;;;;;;47.78;20.80;;;;;;;0.40;100.00;100240.97;12188792;19;20003;-81
2023/03/03 07:06:42;;;;;;;47.80;21.05;;;;;;;0.45;100.00;100247.56;12178073;19;20022;-82
2023/03/03 07:10:48;;;;;;;47.78;19.33;;;;;;;0.50;100.00;100251.59;12214672;19;20518;-82
2023/03/03 07:15:20;;;;;;;51.20;20.92;;;;;;;0.58;100.00;100266.00;12254524;19;19998;-80
2023/03/03 07:19:33;;;;;;;47.08;20.42;;;;;;;0.62;100.00;100278.16;12235678;19;20002;-80
2023/03/03 07:23:41;;;;;;;45.67;19.45;;;;;;;0.69;100.00;100281.06;12194711;19;20003;-81
2023/03/03 07:27:43;;;;;;;49.60;20.60;;;;;;;0.73;100.00;100287.81;12167657;19;21474;-81
2023/03/03 07:31:48;;;;;;;53.00;20.60;;;;;;;0.87;100.00;100283.53;12160914;19;20483;-80
2023/03/03 07:35:52;;;;;;;56.10;23.27;;;;;;;0.96;100.00;100297.91;12177391;19;19999;-79
2023/03/03 07:39:54;;;;;;;50.92;22.45;;;;;;;1.09;100.00;100304.47;12178172;19;20468;-80
2023/03/03 07:44:06;;;;;;;50.20;21.03;;;;;;;1.26;100.00;100315.25;12155292;19;20034;-81
2023/03/03 07:48:25;;;;;;;53.08;21.08;;;;;;;1.29;100.00;100314.91;12182211;19;20013;-81
2023/03/03 07:52:42;;;;;;;55.20;22.13;;;;;;;1.36;100.00;100327.56;12152233;19;19999;-81
2023/03/03 07:56:44;;;;;;;56.65;23.45;;;;;;;1.52;100.00;100331.25;12185663;19;20930;-80
2023/03/03 08:01:24;;;;;;;56.03;23.08;;;;;;;1.68;100.00;100333.03;12187725;19;20017;-80
2023/03/03 08:05:46;;;;;;;54.45;21.42;;;;;;;1.74;100.00;100341.28;12161334;19;20773;-82
2023/03/03 08:09:55;;;;;;;57.42;23.38;;;;;;;1.94;100.00;100338.13;12182623;19;20006;-81
2023/03/03 08:13:58;;;;;;;42.83;20.15;;;;;;;2.15;100.00;100343.72;12162029;19;20086;-80
2023/03/03 08:18:00;;;;;;;49.60;20.70;;;;;;;2.35;100.00;100343.22;12187675;19;20018;-81
2023/03/03 08:22:16;;;;;;;46.92;20.02;;;;;;;2.66;100.00;100356.72;12185466;19;20010;-81
2023/03/03 08:26:19;;;;;;;49.20;21.13;;;;;;;2.93;100.00;100361.50;12165313;19;20014;-81
2023/03/03 08:30:22;;;;;;;48.03;20.15;;;;;;;3.10;99.82;100359.47;12180763;19;21514;-80
2023/03/03 08:34:24;;;;;;;50.78;19.20;;;;;;;3.09;98.76;100363.19;12167812;19;20023;-80
2023/03/03 08:38:27;;;;;;;44.72;20.80;;;;;;;2.99;98.96;100365.38;12202084;19;20003;-80
2023/03/03 08:42:30;;;;;;;51.00;20.92;;;;;;;3.17;99.39;100360.41;12196675;19;20010;-80
2023/03/03 08:46:33;;;;;;;48.15;21.35;;;;;;;3.42;98.31;100363.69;12168992;19;20026;-81
2023/03/03 08:50:37;;;;;;;47.27;21.50;;;;;;;3.79;96.52;100369.16;12178569;19;21657;-80
2023/03/03 08:54:39;;;;;;;47.13;20.75;;;;;;;3.91;94.45;100356.69;12181137;19;20022;-80
2023/03/03 08:58:46;;;;;;;47.97;20.13;;;;;;;3.67;93.17;100354.34;12148133;19;20034;-81
2023/03/03 09:03:02;;;;;;;48.40;20.15;;;;;;;3.75;94.26;100365.97;12180914;19;20030;-81
2023/03/03 09:07:05;;;;;;;54.60;21.02;;;;;;;4.03;93.33;100359.75;12191970;19;20070;-80
2023/03/03 09:11:18;;;;;;;56.77;25.90;;;;;;;4.03;91.06;100363.34;12164423;19;20010;-79
2023/03/03 09:15:27;;;;;;;54.10;23.00;;;;;;;3.81;92.34;100362.47;12184402;19;20006;-80
2023/03/03 09:19:31;;;;;;;66.60;29.67;;;;;;;3.80;92.53;100371.66;12167255;19;20120;-80
2023/03/03 09:23:41;;;;;;;44.53;22.02;;;;;;;3.77;92.39;100371.22;12178721;19;20050;-80
2023/03/03 09:27:43;;;;;;;49.92;21.60;;;;;;;4.11;91.87;100379.56;12186375;19;20615;-80
2023/03/03 09:31:58;;;;;;;41.78;14.82;;;;;;;4.51;90.27;100376.38;12158864;19;20040;-81
2023/03/03 09:36:19;;;;;;;44.45;20.52;;;;;;;4.60;88.35;100367.00;12184063;19;20006;-81
2023/03/03 09:40:36;;;;;;;46.85;21.27;;;;;;;4.58;87.23;100363.66;12162813;19;20011;-81
2023/03/03 09:45:02;;;;;;;48.40;21.00;;;;;;;4.62;87.27;100375.00;12189068;19;20007;-81
2023/03/03 09:49:36;;;;;;;41.72;20.50;;;;;;;4.77;87.04;100383.94;12180962;19;20090;-81
2023/03/03 09:53:41;;;;;;;42.15;19.65;;;;;;;5.07;86.17;100379.13;12083604;19;2004388;-81
2023/03/03 09:58:18;;;;;;;42.63;18.45;;;;;;;5.39;84.54;100369.44;12194034;19;20039;-81
2023/03/03 10:02:40;;;;;;;41.65;17.77;;;;;;;5.68;83.15;100370.19;12170350;19;20027;-82
2023/03/03 10:07:02;;;;;;;40.58;18.23;;;;;;;5.86;81.14;100378.69;12182654;19;20037;-80
2023/03/03 10:11:36;;;;;;;46.58;19.08;;;;;;;5.78;79.36;100392.53;12158189;19;20006;-81
2023/03/03 10:15:54;;;;;;;40.25;19.08;;;;;;;5.72;79.00;100385.16;12185042;19;20007;-81
2023/03/03 10:20:19;;;;;;;37.80;18.02;;;;;;;5.80;79.54;100389.59;12172241;19;20038;-81
2023/03/03 10:24:26;;;;;;;45.38;19.88;;;;;;;6.11;79.22;100383.63;12183112;19;20011;-82
2023/03/03 10:28:52;;;;;;;41.95;19.42;;;;;;;6.28;77.21;100393.16;12157207;19;20007;-81
2023/03/03 10:33:10;;;;;;;39.20;18.00;;;;;;;6.26;75.40;100387.03;12174718;19;20074;-81
2023/03/03 10:38:09;;;;;;;37.88;17.45;;;;;;;6.59;75.14;100383.47;12159453;19;20007;-81
2023/03/03 10:42:31;;;;;;;38.08;18.20;;;;;;;6.70;73.66;100384.75;12174960;19;20038;-81
2023/03/03 10:46:54;;;;;;;39.63;17.40;;;;;;;6.80;71.37;100382.44;12160694;19;21495;-80
2023/03/03 10:51:06;;;;;;;39.17;17.90;;;;;;;6.95;72.08;100385.78;12177820;19;20107;-81
2023/03/03 10:55:45;;;;;;;37.60;17.67;;;;;;;7.14;71.23;100386.84;12178918;19;20014;-80
2023/03/03 11:00:09;;;;;;;37.95;18.17;;;;;;;7.30;69.92;100397.34;12177466;19;20007;-81
2023/03/03 11:04:36;;;;;;;39.30;16.27;;;;;;;7.56;67.76;100398.34;12161451;19;20015;-81
2023/03/03 11:08:45;;;;;;;33.88;16.33;;;;;;;7.69;67.52;100398.28;12231205;19;19998;-82
2023/03/03 11:13:12;;;;;;;33.25;16.33;;;;;;;7.76;64.90;100401.00;12189282;19;20007;-81
2023/03/03 11:17:45;;;;;;;32.90;15.88;;;;;;;7.89;62.81;100394.63;12159314;19;20081;-80
2023/03/03 11:22:19;;;;;;;37.97;15.77;;;;;;;7.96;63.90;100396.25;12168259;19;20022;-80
2023/03/03 11:26:39;;;;;;;36.35;17.08;;;;;;;8.12;63.98;100391.31;12149630;19;20007;-80
2023/03/03 11:30:51;;;;;;;33.17;16.75;;;;;;;8.50;63.36;100391.31;12174475;19;20006;-81
2023/03/03 11:35:11;;;;;;;32.38;14.57;;;;;;;8.43;59.00;100374.91;12148528;19;20027;-80
2023/03/03 11:39:19;;;;;;;38.38;16.85;;;;;;;8.65;61.33;100367.13;12174078;19;20017;-79
2023/03/03 11:43:31;;;;;;;30.05;15.48;;;;;;;9.02;61.40;100353.50;12155114;19;20357;-81
2023/03/03 11:47:46;;;;;;;28.35;13.85;;;;;;;9.07;57.23;100370.16;12167358;19;20042;-80
2023/03/03 11:52:00;;;;;;;33.97;16.08;;;;;;;9.02;57.14;100353.50;12177029;19;20035;-81
2023/03/03 11:56:18;;;;;;;28.80;14.77;;;;;;;9.24;56.47;100351.16;12156795;19;20832;-81
2023/03/03 12:00:30;;;;;;;31.95;15.40;;;;;;;9.61;55.93;100342.03;12182499;19;20736;-82
2023/03/03 12:04:47;;;;;;;33.10;15.45;;;;;;;9.91;56.03;100339.34;12157787;19;20011;-87
2023/03/03 12:09:02;;;;;;;30.85;16.10;;;;;;;10.43;54.08;100329.47;12185317;19;20010;-81
2023/03/03 12:13:21;;;;;;;34.85;17.42;;;;;;;10.86;53.83;100328.34;12171368;19;20012;-82
2023/03/03 12:17:44;;;;;;;32.67;16.70;;;;;;;11.21;53.27;100319.22;12155776;19;20758;-82
2023/03/03 12:22:38;;;;;;;29.88;16.15;;;;;;;11.91;51.93;100325.69;12173218;19;20102;-82
2023/03/03 12:26:58;;;;;;;31.08;16.75;;;;;;;12.34;48.41;100315.97;12066752;19;2006305;-82
2023/03/03 12:31:17;;;;;;;29.10;15.60;;;;;;;12.23;47.48;100315.81;12172675;19;20006;-80
2023/03/03 12:35:29;;;;;;;28.88;15.60;;;;;;;12.52;47.66;100307.44;12155339;19;20010;-80
2023/03/03 12:39:44;;;;;;;28.23;15.27;;;;;;;12.87;46.36;100307.19;12185263;19;20025;-81
2023/03/03 12:44:14;;;;;;;27.08;15.82;;;;;;;13.52;43.89;100294.56;12187274;19;20014;-82
2023/03/03 12:48:39;;;;;;;25.17;14.75;;;;;;;14.13;42.24;100289.75;12256475;19;20063;-80
2023/03/03 12:53:03;;;;;;;25.95;15.43;;;;;;;14.39;42.25;100286.34;12208041;19;20009;-81
2023/03/03 12:57:35;;;;;;;27.02;15.70;;;;;;;14.70;41.16;100287.50;12189287;19;20011;-82
2023/03/03 13:02:25;;;;;;;23.98;14.23;;;;;;;14.64;41.45;100278.31;12150983;19;20500;-81
2023/03/03 13:06:31;;;;;;;26.67;14.25;;;;;;;15.04;41.21;100277.72;12174153;19;20014;-82
2023/03/03 13:10:41;;;;;;;26.80;15.25;;;;;;;15.56;37.98;100273.28;12157216;19;20011;-82
2023/03/03 13:15:00;;;;;;;26.33;15.02;;;;;;;15.61;37.43;100269.69;12171585;19;20036;-82
2023/03/03 13:19:10;;;;;;;25.85;14.40;;;;;;;15.67;38.61;100275.00;12196615;19;20112;-82
2023/03/03 13:23:27;;;;;;;25.48;13.55;;;;;;;15.35;39.31;100275.16;12173281;19;20011;-83
2023/03/03 13:27:39;;;;;;;23.10;12.88;;;;;;;14.36;39.30;100265.53;12196708;19;20015;-81
2023/03/03 13:31:55;;;;;;;22.70;13.52;;;;;;;13.23;41.47;100264.25;12175893;19;20002;-82
2023/03/03 13:36:02;;;;;;;26.48;12.93;;;;;;;12.69;42.11;100265.97;12199481;19;20471;-83
2023/03/03 13:40:18;;;;;;;23.45;11.95;;;;;;;12.49;42.80;100259.06;12204101;19;20508;-85
2023/03/03 13:44:27;;;;;;;20.55;11.35;;;;;;;12.37;42.27;100254.66;12183214;19;20013;-83
2023/03/03 13:48:50;;;;;;;23.67;11.98;;;;;;;12.24;42.56;100251.16;12204041;19;20122;-84
2023/03/03 13:53:16;;;;;;;19.48;11.27;;;;;;;12.27;43.20;100245.13;12186398;19;20007;-83
2023/03/03 13:57:49;;;;;;;22.20;10.93;;;;;;;11.76;44.15;100246.94;12213291;19;20395;-82
2023/03/03 14:01:56;;;;;;;;;;;;;;;11.40;44.61;100250.94;12187715;19;20376;-82
2023/03/03 14:06:10;;;;;;;20.98;9.93;;;;;;;11.08;45.44;100239.50;12205422;19;20257;-82
2023/03/03 14:10:34;;;;;;;28.27;10.82;;;;;;;10.76;46.29;100236.28;12184440;19;20017;-83
2023/03/03 14:14:45;;;;;;;25.77;10.15;;;;;;;10.53;47.05;100229.72;12209876;19;20011;-83
2023/03/03 14:18:56;;;;;;;19.80;9.40;;;;;;;10.42;47.46;100236.91;12233483;19;20006;-82
2023/03/03 14:23:02;;;;;;;21.58;10.55;;;;;;;10.37;47.58;100231.25;12188682;19;20384;-83
2023/03/03 14:27:23;;;;;;;21.80;9.27;;;;;;;10.40;47.80;100229.94;12212064;19;20006;-82
2023/03/03 14:31:37;;;;;;;21.80;9.63;;;;;;;10.33;47.54;100235.56;12185870;19;20426;-81
2023/03/03 14:35:41;;;;;;;21.67;10.38;;;;;;;10.12;48.16;100227.84;12207069;19;20006;-82
2023/03/03 14:39:50;;;;;;;19.85;8.95;;;;;;;10.09;48.85;100228.31;12204553;19;20022;-81
2023/03/03 14:43:58;;;;;;;18.15;9.43;;;;;;;10.07;49.20;100230.47;12183262;19;20007;-82
2023/03/03 14:48:09;;;;;;;21.63;9.77;;;;;;;10.11;48.74;100231.66;12202064;19;20010;-83
2023/03/03 14:52:14;;;;;;;17.38;8.45;;;;;;;10.10;48.63;100230.00;12178272;19;20094;-82
2023/03/03 14:56:22;;;;;;;18.13;9.38;;;;;;;10.11;48.63;100228.91;12201224;19;20006;-82
2023/03/03 15:00:24;;;;;;;18.00;9.00;;;;;;;10.15;48.36;100232.88;12212906;19;20013;-83
2023/03/03 15:04:27;;;;;;;18.17;9.45;;;;;;;10.05;48.24;100238.94;12182959;19;20010;-82
2023/03/03 15:08:37;;;;;;;17.80;9.13;;;;;;;10.14;47.65;100237.56;12203192;19;20006;-83
2023/03/03 15:12:41;;;;;;;20.30;8.43;;;;;;;10.24;47.80;100232.28;12199330;19;20166;-83
2023/03/03 15:16:45;;;;;;;16.85;8.07;;;;;;;10.56;46.47;100233.88;12182495;19;20021;-81
2023/03/03 15:21:00;;;;;;;18.50;9.55;;;;;;;10.63;45.88;100237.38;12201640;19;20010;-81
2023/03/03 15:25:12;;;;;;;16.73;8.13;;;;;;;10.68;46.08;100232.00;12206306;19;20035;-83
2023/03/03 15:29:19;;;;;;;;;;;;;;;10.47;46.27;100241.69;12180730;19;20019;-81
2023/03/03 15:33:32;;;;;;;27.38;12.98;;;;;;;10.61;46.37;100237.59;12206927;19;19917;-82
2023/03/03 15:37:53;;;;;;;29.70;15.30;;;;;;;10.45;46.00;100243.84;12201432;19;20076;-82
2023/03/03 15:42:07;;;;;;;31.58;14.23;;;;;;;10.19;46.21;100242.34;12265659;19;20034;-81
2023/03/03 15:46:20;;;;;;;26.92;12.73;;;;;;;9.87;46.34;100237.09;12219098;19;20002;-82
2023/03/03 15:50:34;;;;;;;20.25;10.77;;;;;;;9.59;45.83;100240.50;12204054;19;20112;-82
2023/03/03 15:55:08;;;;;;;21.30;10.52;;;;;;;9.40;46.24;100245.19;12203599;19;20010;-82
2023/03/03 15:59:41;;;;;;;15.82;7.60;;;;;;;9.18;46.42;100233.00;12177840;19;20023;-81
2023/03/03 16:03:48;;;;;;;12.98;6.18;;;;;;;8.99;46.76;100238.50;12194446;19;20038;-82
2023/03/03 16:08:21;;;;;;;11.52;5.53;;;;;;;8.91;47.17;100244.28;12175512;19;20074;-81
2023/03/03 16:12:42;;;;;;;10.77;5.43;;;;;;;8.70;47.17;100242.00;12201853;19;20078;-82
2023/03/03 16:17:16;;;;;;;14.25;5.88;;;;;;;8.62;47.63;100243.94;12183533;19;20007;-81
2023/03/03 16:22:00;;;;;;;18.63;7.53;;;;;;;8.49;48.02;100246.84;12207963;19;20011;-83
2023/03/03 16:26:39;;;;;;;13.07;6.45;;;;;;;8.34;48.63;100249.88;12175152;19;20003;-82
2023/03/03 16:30:48;;;;;;;12.10;6.28;;;;;;;8.27;49.15;100246.38;12198591;19;20074;-82
2023/03/03 16:35:14;;;;;;;12.82;6.05;;;;;;;8.14;49.46;100250.03;12176363;19;20011;-82
2023/03/03 16:39:33;;;;;;;13.05;5.65;;;;;;;8.00;50.31;100253.94;12196792;19;20006;-82
2023/03/03 16:44:03;;;;;;;11.38;6.32;;;;;;;7.83;50.85;100256.41;12175657;19;20027;-82
2023/03/03 16:48:18;;;;;;;10.15;4.78;;;;;;;7.64;51.43;100258.19;12198432;19;20006;-83
2023/03/03 16:52:31;;;;;;;11.27;5.35;;;;;;;7.43;52.16;100259.34;12173595;19;20907;-82
2023/03/03 16:57:06;;;;;;;10.05;5.43;;;;;;;7.23;52.40;100270.44;12195153;19;20015;-82
2023/03/03 17:01:31;;;;;;;13.45;6.35;;;;;;;6.95;53.92;100278.94;12188822;19;20011;-81
2023/03/03 17:05:43;;;;;;;11.10;5.03;;;;;;;6.71;54.38;100285.09;12197810;19;20608;-81
2023/03/03 17:10:15;;;;;;;11.55;5.78;;;;;;;6.43;55.51;100282.63;12215955;19;20010;-82
2023/03/03 17:14:40;;;;;;;15.33;6.20;;;;;;;6.19;55.69;100284.94;12225799;19;20108;-81
2023/03/03 17:18:57;;;;;;;15.95;7.53;;;;;;;5.92;56.38;100292.22;12248641;19;20023;-82
2023/03/03 17:22:58;;;;;;;14.10;5.95;;;;;;;5.68;57.25;100296.34;12223028;19;20032;-82
2023/03/03 17:27:22;;;;;;;49.97;22.70;;;;;;;5.48;58.18;100299.88;12251284;19;20040;-82
2023/03/03 17:31:56;;;;;;;17.92;8.13;;;;;;;5.25;59.59;100308.41;12184589;19;20097;-82
2023/03/03 17:36:26;;;;;;;18.92;7.95;;;;;;;5.09;60.58;100318.84;12209005;19;20039;-82
2023/03/03 17:40:51;;;;;;;15.13;7.25;;;;;;;4.94;61.11;100335.34;12187635;19;20035;-81
2023/03/03 17:45:07;;;;;;;18.00;6.65;;;;;;;4.79;62.30;100332.72;12210480;19;19999;-82
2023/03/03 17:49:26;;;;;;;14.45;6.38;;;;;;;4.65;63.45;100341.88;12207320;19;20011;-81
2023/03/03 17:53:49;;;;;;;12.77;5.90;;;;;;;4.51;64.31;100340.91;12209017;19;20010;-81
2023/03/03 17:58:19;;;;;;;14.77;6.45;;;;;;;4.36;65.77;100351.91;12210838;19;20041;-81
2023/03/03 18:02:51;;;;;;;17.52;7.82;;;;;;;4.30;65.36;100360.88;12194326;19;20010;-81
2023/03/03 18:07:18;;;;;;;12.67;6.93;;;;;;;4.22;65.22;100363.72;12226966;19;20501;-82
2023/03/03 18:11:57;;;;;;;18.38;7.20;;;;;;;4.12;65.86;100361.31;12222105;19;20295;-81
2023/03/03 18:16:12;;;;;;;11.93;5.97;;;;;;;4.00;66.36;100365.59;12276349;19;20541;-81
2023/03/03 18:20:31;;;;;;;13.18;6.60;;;;;;;3.88;67.36;100373.44;12221309;19;20007;-81
2023/03/03 18:24:57;;;;;;;40.47;17.13;;;;;;;3.78;67.72;100381.09;12223004;19;20421;-81
2023/03/03 18:29:08;;;;;;;23.95;9.35;;;;;;;3.77;68.99;100382.13;12198598;19;20396;-82
2023/03/03 18:33:12;;;;;;;37.88;14.95;;;;;;;3.73;69.02;100383.53;12212579;19;20015;-83
2023/03/03 18:37:29;;;;;;;58.28;19.90;;;;;;;3.68;70.52;100386.84;12189365;19;20003;-81
2023/03/03 18:41:52;;;;;;;23.13;8.73;;;;;;;3.60;70.37;100384.25;12216420;19;20006;-82
2023/03/03 18:45:54;;;;;;;11.25;4.88;;;;;;;3.45;70.30;100388.84;12211216;19;20022;-82
2023/03/03 18:50:13;;;;;;;12.38;5.57;;;;;;;3.31;70.65;100388.66;12188300;19;20421;-82
2023/03/03 18:54:16;;;;;;;12.27;5.00;;;;;;;3.19;71.36;100401.91;12210563;19;20007;-82
2023/03/03 18:58:17;;;;;;;10.95;4.72;;;;;;;3.14;71.55;100404.34;12190845;19;20091;-82
2023/03/03 19:02:47;;;;;;;13.90;4.90;;;;;;;3.10;72.33;100403.03;12210582;19;20508;-81
2023/03/03 19:07:01;;;;;;;13.32;5.00;;;;;;;3.04;72.19;100411.94;12209054;19;20010;-81